createdAt,value
2023-05-03T00:02:16.605Z,7.30
2023-05-03T00:04:46.546Z,7.20
2023-05-03T00:07:14.637Z,7.30
2023-05-03T00:09:42.139Z,7.30
2023-05-03T00:12:09.613Z,7.30
2023-05-03T00:14:37.074Z,7.30
2023-05-03T00:17:04.718Z,7.20
2023-05-03T00:19:33.809Z,7.20
2023-05-03T00:22:01.468Z,7.20
2023-05-03T00:24:29.237Z,7.30
2023-05-03T00:26:56.775Z,7.20
2023-05-03T00:29:24.344Z,7.30
2023-05-03T00:31:51.892Z,7.20
2023-05-03T00:34:19.368Z,7.20
2023-05-03T00:36:46.847Z,7.20
2023-05-03T00:39:14.460Z,7.10
2023-05-03T00:41:42.030Z,7.10
2023-05-03T00:44:09.572Z,7.00
2023-05-03T00:46:37.037Z,7.00
2023-05-03T00:49:04.612Z,6.90
2023-05-03T00:51:33.202Z,7.00
2023-05-03T00:54:00.840Z,6.90
2023-05-03T00:56:31.122Z,6.90
2023-05-03T00:59:01.944Z,6.90
2023-05-03T01:01:30.602Z,6.80
2023-05-03T01:03:58.830Z,6.90
2023-05-03T01:06:35.481Z,6.90
2023-05-03T01:09:17.260Z,6.80
2023-05-03T01:12:12.588Z,6.90
2023-05-03T01:14:54.668Z,6.80
2023-05-03T01:17:28.443Z,6.90
2023-05-03T01:20:04.660Z,6.80
2023-05-03T01:22:56.421Z,6.80
2023-05-03T01:25:24.193Z,6.80
2023-05-03T01:27:51.803Z,6.80
2023-05-03T01:30:22.928Z,6.80
2023-05-03T01:33:13.637Z,6.70
2023-05-03T01:35:45.670Z,6.70
2023-05-03T01:38:14.058Z,6.70
2023-05-03T01:40:47.117Z,6.70
2023-05-03T01:43:17.055Z,6.60
2023-05-03T01:45:46.237Z,6.60
2023-05-03T01:48:16.503Z,6.60
2023-05-03T01:50:44.674Z,6.70
2023-05-03T01:53:12.592Z,6.60
2023-05-03T01:55:40.173Z,6.60
2023-05-03T01:58:07.693Z,6.50
2023-05-03T02:00:35.180Z,6.50
2023-05-03T02:03:02.809Z,6.60
2023-05-03T02:05:30.337Z,6.50
2023-05-03T02:07:58.034Z,6.50
2023-05-03T02:10:25.561Z,6.50
2023-05-03T02:12:56.193Z,6.40
2023-05-03T02:15:23.753Z,6.40
2023-05-03T02:17:51.350Z,6.50
2023-05-03T02:20:19.324Z,6.40
2023-05-03T02:22:46.770Z,6.40
2023-05-03T02:25:14.235Z,6.40
2023-05-03T02:27:41.681Z,6.30
2023-05-03T02:30:09.591Z,6.40
2023-05-03T02:32:42.611Z,6.40
2023-05-03T02:35:10.666Z,6.40
2023-05-03T02:37:38.118Z,6.30
2023-05-03T02:40:11.103Z,6.50
2023-05-03T02:42:39.453Z,6.50
2023-05-03T02:45:08.504Z,6.40
2023-05-03T02:47:36.083Z,6.50
2023-05-03T02:50:03.925Z,6.50
2023-05-03T02:52:35.431Z,6.40
2023-05-03T02:55:03.054Z,6.40
2023-05-03T02:57:30.852Z,6.50
2023-05-03T02:59:58.841Z,6.50
2023-05-03T03:02:27.220Z,6.60
2023-05-03T03:04:55.144Z,6.40
2023-05-03T03:07:23.967Z,6.50
2023-05-03T03:09:55.499Z,6.40
2023-05-03T03:12:23.107Z,6.50
2023-05-03T03:14:50.580Z,6.40
2023-05-03T03:17:18.152Z,6.40
2023-05-03T03:19:45.642Z,6.30
2023-05-03T03:22:13.491Z,6.30
2023-05-03T03:24:41.057Z,6.40
2023-05-03T03:27:08.508Z,6.40
2023-05-03T03:29:36.061Z,6.40
2023-05-03T03:32:05.114Z,6.30
2023-05-03T03:34:33.106Z,6.30
2023-05-03T03:37:01.563Z,6.30
2023-05-03T03:39:30.497Z,6.40
2023-05-03T03:41:58.106Z,6.30
2023-05-03T03:44:25.749Z,6.20
2023-05-03T03:46:53.392Z,6.30
2023-05-03T03:49:21.078Z,6.30
2023-05-03T03:51:48.569Z,6.30
2023-05-03T03:54:16.178Z,6.40
2023-05-03T03:56:48.269Z,6.30
2023-05-03T03:59:16.198Z,6.30
2023-05-03T04:01:44.962Z,6.30
2023-05-03T04:04:12.871Z,6.20
2023-05-03T04:06:41.131Z,6.30
2023-05-03T04:09:12.548Z,6.30
2023-05-03T04:11:40.824Z,6.30
2023-05-03T04:14:08.756Z,6.40
2023-05-03T04:16:36.545Z,6.30
2023-05-03T04:19:05.654Z,6.30
2023-05-03T04:21:35.995Z,6.40
2023-05-03T04:24:06.091Z,6.50
2023-05-03T04:26:35.317Z,6.40
2023-05-03T04:29:12.593Z,6.40
2023-05-03T04:31:41.327Z,6.50
2023-05-03T04:34:10.705Z,6.50
2023-05-03T04:36:38.724Z,6.50
2023-05-03T04:39:07.289Z,6.60
2023-05-03T04:41:35.721Z,6.50
2023-05-03T04:44:05.635Z,6.60
2023-05-03T04:46:33.282Z,6.60
2023-05-03T04:49:00.791Z,6.70
2023-05-03T04:51:29.340Z,6.60
2023-05-03T04:54:02.106Z,6.60
2023-05-03T04:56:30.252Z,6.70
2023-05-03T04:59:09.078Z,6.90
2023-05-03T05:01:37.607Z,6.80
2023-05-03T05:04:06.844Z,6.80
2023-05-03T05:06:45.836Z,7.00
2023-05-03T05:09:27.407Z,7.10
2023-05-03T05:11:57.701Z,7.10
2023-05-03T05:14:31.291Z,7.10
2023-05-03T05:16:59.964Z,7.00
2023-05-03T05:19:27.736Z,7.10
2023-05-03T05:21:55.736Z,7.20
2023-05-03T05:24:27.805Z,7.20
2023-05-03T05:26:55.586Z,7.20
2023-05-03T05:29:23.287Z,7.20
2023-05-03T05:31:51.939Z,7.30
2023-05-03T05:34:19.990Z,7.40
2023-05-03T05:36:48.040Z,7.40
2023-05-03T05:39:16.235Z,7.50
2023-05-03T05:41:43.952Z,7.60
2023-05-03T05:44:13.388Z,7.60
2023-05-03T05:46:41.795Z,7.80
2023-05-03T05:49:10.001Z,7.70
2023-05-03T05:51:37.528Z,7.90
2023-05-03T05:54:05.107Z,7.80
2023-05-03T05:56:32.729Z,8.00
2023-05-03T05:59:01.096Z,8.10
2023-05-03T06:01:28.778Z,8.00
2023-05-03T06:03:56.577Z,8.00
2023-05-03T06:06:25.067Z,8.10
2023-05-03T06:08:53.101Z,8.20
2023-05-03T06:11:22.202Z,8.10
2023-05-03T06:13:50.061Z,8.10
2023-05-03T06:16:19.270Z,8.20
2023-05-03T06:18:46.812Z,8.30
2023-05-03T06:21:14.310Z,8.40
2023-05-03T06:23:42.196Z,8.30
2023-05-03T06:26:10.409Z,8.40
2023-05-03T06:28:37.933Z,8.50
2023-05-03T06:31:05.842Z,8.30
2023-05-03T06:33:33.697Z,8.50
2023-05-03T06:36:01.844Z,8.40
2023-05-03T06:38:29.417Z,8.40
2023-05-03T06:40:56.810Z,8.50
2023-05-03T06:43:24.336Z,8.50
2023-05-03T06:45:57.836Z,8.50
2023-05-03T06:48:25.744Z,8.50
2023-05-03T06:50:53.217Z,8.60
2023-05-03T06:53:20.937Z,8.60
2023-05-03T06:55:48.508Z,8.70
2023-05-03T06:58:16.853Z,8.50
2023-05-03T07:00:44.501Z,8.50
2023-05-03T07:03:12.222Z,8.50
2023-05-03T07:05:40.399Z,8.70
2023-05-03T07:08:07.884Z,8.60
2023-05-03T07:10:36.566Z,8.70
2023-05-03T07:13:04.217Z,8.60
2023-05-03T07:15:31.790Z,8.70
2023-05-03T07:17:59.802Z,8.70
2023-05-03T07:20:27.576Z,8.70
2023-05-03T07:22:55.097Z,8.70
2023-05-03T07:25:22.735Z,8.70
2023-05-03T07:27:50.317Z,8.80
2023-05-03T07:30:18.229Z,8.70
2023-05-03T07:32:45.948Z,8.80
2023-05-03T07:35:13.533Z,8.90
2023-05-03T07:37:40.916Z,8.90
2023-05-03T07:40:12.398Z,9.00
2023-05-03T07:42:39.874Z,9.00
2023-05-03T07:45:08.209Z,9.00
2023-05-03T07:47:38.313Z,9.00
2023-05-03T07:50:07.524Z,9.10
2023-05-03T07:52:38.178Z,9.00
2023-05-03T07:55:06.949Z,9.00
2023-05-03T07:57:34.498Z,9.00
2023-05-03T08:00:04.326Z,9.20
2023-05-03T08:02:40.837Z,9.10
2023-05-03T08:05:14.827Z,9.10
2023-05-03T08:07:42.577Z,9.10
2023-05-03T08:10:10.550Z,9.10
2023-05-03T08:12:38.059Z,9.20
2023-05-03T08:15:07.209Z,9.20
2023-05-03T08:17:45.096Z,9.20
2023-05-03T08:20:13.611Z,9.30
2023-05-03T08:22:41.457Z,9.40
2023-05-03T08:25:10.001Z,9.50
2023-05-03T08:27:37.537Z,9.50
2023-05-03T08:30:05.850Z,9.50
2023-05-03T08:32:33.620Z,9.50
2023-05-03T08:35:01.339Z,9.50
2023-05-03T08:37:28.783Z,9.50
2023-05-03T08:39:56.317Z,9.40
2023-05-03T08:42:25.729Z,9.40
2023-05-03T08:44:54.841Z,9.40
2023-05-03T08:47:22.273Z,9.60
2023-05-03T08:49:53.809Z,9.70
2023-05-03T08:52:21.330Z,9.60
2023-05-03T08:54:49.374Z,9.60
2023-05-03T08:57:17.831Z,9.70
2023-05-03T08:59:49.717Z,9.70
2023-05-03T09:02:17.821Z,9.60
2023-05-03T09:04:45.956Z,9.80
2023-05-03T09:07:16.099Z,9.90
2023-05-03T09:09:45.588Z,10.10
2023-05-03T09:12:37.169Z,10.20
2023-05-03T09:15:06.499Z,10.30
2023-05-03T09:17:37.052Z,10.30
2023-05-03T09:20:05.241Z,10.30
2023-05-03T09:22:34.857Z,10.50
2023-05-03T09:25:03.625Z,10.40
2023-05-03T09:27:31.297Z,10.30
2023-05-03T09:30:18.067Z,10.30
2023-05-03T09:32:49.377Z,10.40
2023-05-03T09:35:16.918Z,10.50
2023-05-03T09:37:44.431Z,10.60
2023-05-03T09:40:18.206Z,10.60
2023-05-03T09:43:11.619Z,10.70
2023-05-03T09:45:39.779Z,10.50
2023-05-03T09:48:08.684Z,10.50
2023-05-03T09:50:37.281Z,10.60
2023-05-03T09:53:06.481Z,10.60
2023-05-03T09:55:34.815Z,10.50
2023-05-03T09:58:08.867Z,10.80
2023-05-03T10:00:38.488Z,10.90
2023-05-03T10:03:18.309Z,10.90
2023-05-03T10:05:51.339Z,10.90
2023-05-03T10:08:43.012Z,10.90
2023-05-03T10:11:14.591Z,11.20
2023-05-03T10:13:42.705Z,11.40
2023-05-03T10:16:15.319Z,11.70
2023-05-03T10:18:52.990Z,11.80
2023-05-03T10:21:38.612Z,11.60
2023-05-03T10:24:16.638Z,11.50
2023-05-03T10:26:49.808Z,11.70
2023-05-03T10:29:46.015Z,12.10
2023-05-03T10:32:44.603Z,12.10
2023-05-03T10:35:16.529Z,12.00
2023-05-03T10:37:45.682Z,11.90
2023-05-03T10:40:15.282Z,11.70
2023-05-03T10:42:52.159Z,11.90
2023-05-03T10:45:26.452Z,11.90
2023-05-03T10:48:12.103Z,11.60
2023-05-03T10:50:40.445Z,11.60
2023-05-03T10:53:08.723Z,11.40
2023-05-03T10:55:36.611Z,11.30
2023-05-03T10:58:06.086Z,11.70
2023-05-03T11:00:33.706Z,11.90
2023-05-03T11:03:19.677Z,12.20
2023-05-03T11:05:48.459Z,12.00
2023-05-03T11:08:18.721Z,12.40
2023-05-03T11:10:47.423Z,12.50
2023-05-03T11:13:15.587Z,12.20
2023-05-03T11:15:43.387Z,12.60
2023-05-03T11:18:12.115Z,12.80
2023-05-03T11:20:39.895Z,13.20
2023-05-03T11:23:07.696Z,13.30
2023-05-03T11:25:35.531Z,13.30
2023-05-03T11:28:06.318Z,13.50
2023-05-03T11:30:36.016Z,13.70
2023-05-03T11:33:04.412Z,13.80
2023-05-03T11:35:33.114Z,13.90
2023-05-03T11:38:01.146Z,13.90
2023-05-03T11:40:28.690Z,13.80
2023-05-03T11:42:58.800Z,13.70
2023-05-03T11:45:39.862Z,13.70
2023-05-03T11:48:08.170Z,13.70
2023-05-03T11:50:46.668Z,13.80
2023-05-03T11:53:15.943Z,13.80
2023-05-03T11:55:46.428Z,13.10
2023-05-03T11:58:26.615Z,12.70
2023-05-03T12:00:57.241Z,12.50
2023-05-03T12:03:36.201Z,12.70
2023-05-03T12:06:05.270Z,12.20
2023-05-03T12:08:35.893Z,12.40
2023-05-03T12:11:07.583Z,12.70
2023-05-03T12:13:39.864Z,12.70
2023-05-03T12:16:14.267Z,12.60
2023-05-03T12:18:55.793Z,12.60
2023-05-03T12:23:57.450Z,12.60
2023-05-03T12:26:27.573Z,12.80
2023-05-03T12:28:56.693Z,13.00
2023-05-03T12:31:24.706Z,13.00
2023-05-03T12:36:26.054Z,13.10
2023-05-03T12:38:56.503Z,13.10
2023-05-03T12:42:01.007Z,13.20
2023-05-03T12:44:17.194Z,13.30
2023-05-03T12:46:45.908Z,13.30
2023-05-03T12:49:15.212Z,13.10
2023-05-03T12:51:43.527Z,12.70
2023-05-03T12:54:12.462Z,12.70
2023-05-03T12:56:41.494Z,12.60
2023-05-03T13:06:43.784Z,13.30
2023-05-03T13:09:19.232Z,13.40
2023-05-03T13:11:50.297Z,13.30
2023-05-03T13:14:19.153Z,13.10
2023-05-03T13:16:47.410Z,12.90
2023-05-03T13:19:16.292Z,13.00
2023-05-03T13:21:43.782Z,13.20
2023-05-03T13:24:11.248Z,13.10
2023-05-03T13:26:38.757Z,12.90
2023-05-03T13:29:06.299Z,12.70
2023-05-03T13:31:33.805Z,12.70
2023-05-03T13:34:01.503Z,12.50
2023-05-03T13:36:29.716Z,12.50
2023-05-03T13:38:58.117Z,12.50
2023-05-03T13:41:25.739Z,12.60
2023-05-03T13:43:53.236Z,12.50
2023-05-03T13:46:20.966Z,12.60
2023-05-03T13:48:48.978Z,12.60
2023-05-03T13:51:16.588Z,12.50
2023-05-03T13:53:44.690Z,12.50
2023-05-03T13:56:12.172Z,12.40
2023-05-03T13:58:39.889Z,12.40
2023-05-03T14:01:09.012Z,12.30
2023-05-03T14:03:36.597Z,12.30
2023-05-03T14:06:04.376Z,12.10
2023-05-03T14:08:31.915Z,12.30
2023-05-03T14:10:59.411Z,12.20
2023-05-03T14:13:29.700Z,12.20
2023-05-03T14:16:00.731Z,12.10
2023-05-03T14:18:28.250Z,12.00
2023-05-03T14:20:57.117Z,12.00
2023-05-03T14:23:24.588Z,11.80
2023-05-03T14:25:52.397Z,11.70
2023-05-03T14:28:19.898Z,11.80
2023-05-03T14:30:47.462Z,11.70
2023-05-03T14:33:15.052Z,11.60
2023-05-03T14:35:42.700Z,11.50
2023-05-03T14:38:10.804Z,11.60
2023-05-03T14:40:38.221Z,11.70
2023-05-03T14:43:05.782Z,11.90
2023-05-03T14:45:33.225Z,11.90
2023-05-03T14:48:00.770Z,11.90
2023-05-03T14:50:28.401Z,11.80
2023-05-03T14:52:57.169Z,11.70
2023-05-03T14:55:25.263Z,11.50
2023-05-03T14:57:54.296Z,11.40
2023-05-03T15:00:21.819Z,11.40
2023-05-03T15:02:54.809Z,11.50
2023-05-03T15:05:22.626Z,11.60
2023-05-03T15:07:50.083Z,11.50
2023-05-03T15:10:17.604Z,11.50
2023-05-03T15:12:45.213Z,11.50
2023-05-03T15:15:12.905Z,11.50
2023-05-03T15:17:40.605Z,11.50
2023-05-03T15:20:10.444Z,11.50
2023-05-03T15:22:37.914Z,11.40
2023-05-03T15:25:05.935Z,11.30
2023-05-03T15:27:33.571Z,11.40
2023-05-03T15:30:01.038Z,11.40
2023-05-03T15:32:28.671Z,11.30
2023-05-03T15:34:57.782Z,11.30
2023-05-03T15:37:37.978Z,11.30
2023-05-03T15:40:09.314Z,11.30
2023-05-03T15:42:37.742Z,11.20
2023-05-03T15:45:06.660Z,11.30
2023-05-03T15:47:34.346Z,11.10
2023-05-03T15:50:02.877Z,11.00
2023-05-03T15:52:31.021Z,10.90
2023-05-03T15:54:58.503Z,10.80
2023-05-03T15:57:26.812Z,10.90
2023-05-03T15:59:54.861Z,10.80
2023-05-03T16:02:22.464Z,10.90
2023-05-03T16:04:50.743Z,10.70
2023-05-03T16:07:18.600Z,10.80
2023-05-03T16:09:46.694Z,10.90
2023-05-03T16:12:14.230Z,10.90
2023-05-03T16:14:42.025Z,11.10
2023-05-03T16:17:09.922Z,10.90
2023-05-03T16:19:37.722Z,10.80
2023-05-03T16:22:05.538Z,10.80
2023-05-03T16:24:34.310Z,10.80
2023-05-03T16:27:03.749Z,10.70
2023-05-03T16:29:34.617Z,10.70
2023-05-03T16:32:02.219Z,10.70
2023-05-03T16:34:29.700Z,10.70
2023-05-03T16:36:57.264Z,10.90
2023-05-03T16:39:24.807Z,10.90
2023-05-03T16:41:52.350Z,10.90
2023-05-03T16:44:19.909Z,10.80
2023-05-03T16:46:48.848Z,10.90
2023-05-03T16:49:16.322Z,10.90
2023-05-03T16:51:44.034Z,10.90
2023-05-03T16:54:12.021Z,10.90
2023-05-03T16:56:39.644Z,10.70
2023-05-03T16:59:10.103Z,10.60
2023-05-03T17:01:37.734Z,10.70
2023-05-03T17:04:06.503Z,10.70
2023-05-03T17:06:34.135Z,10.60
2023-05-03T17:09:01.765Z,10.60
2023-05-03T17:11:29.846Z,10.60
2023-05-03T17:13:58.527Z,10.70
2023-05-03T17:16:26.470Z,10.60
2023-05-03T17:18:54.161Z,10.60
2023-05-03T17:21:22.246Z,10.50
2023-05-03T17:23:49.792Z,10.50
2023-05-03T17:26:17.726Z,10.40
2023-05-03T17:28:45.146Z,10.40
2023-05-03T17:31:13.095Z,10.40
2023-05-03T17:33:40.569Z,10.30
2023-05-03T17:36:08.194Z,10.50
2023-05-03T17:38:36.187Z,10.50
2023-05-03T17:41:08.076Z,10.40
2023-05-03T17:43:36.578Z,10.20
2023-05-03T17:46:11.521Z,10.20
2023-05-03T17:48:40.726Z,10.20
2023-05-03T17:51:08.617Z,10.00
2023-05-03T17:53:36.229Z,10.20
2023-05-03T17:56:03.827Z,10.10
2023-05-03T17:58:31.667Z,10.10
2023-05-03T18:00:59.099Z,10.20
2023-05-03T18:03:27.575Z,10.10
2023-05-03T18:05:55.180Z,10.10
2023-05-03T18:08:22.939Z,10.10
2023-05-03T18:10:51.755Z,10.10
2023-05-03T18:13:19.473Z,10.10
2023-05-03T18:15:47.291Z,10.00
2023-05-03T18:18:14.860Z,10.00
2023-05-03T18:20:42.497Z,10.10
2023-05-03T18:23:10.114Z,10.20
2023-05-03T18:25:37.633Z,10.00
2023-05-03T18:28:05.393Z,9.90
2023-05-03T18:30:32.927Z,9.90
2023-05-03T18:33:00.419Z,9.90
2023-05-03T18:35:28.074Z,10.00
2023-05-03T18:37:55.598Z,9.80
2023-05-03T18:40:23.183Z,9.90
2023-05-03T18:42:50.644Z,9.80
2023-05-03T18:45:19.638Z,9.80
2023-05-03T18:47:47.394Z,10.00
2023-05-03T18:50:15.314Z,9.90
2023-05-03T18:52:42.869Z,10.00
2023-05-03T18:55:10.511Z,10.00
2023-05-03T18:57:38.205Z,9.90
2023-05-03T19:00:06.660Z,9.80
2023-05-03T19:02:34.316Z,9.70
2023-05-03T19:05:01.980Z,9.80
2023-05-03T19:07:29.851Z,9.70
2023-05-03T19:09:57.726Z,9.70
2023-05-03T19:12:25.542Z,9.70
2023-05-03T19:14:53.129Z,9.70
2023-05-03T19:17:20.869Z,9.70
2023-05-03T19:19:48.554Z,9.80
2023-05-03T19:22:16.218Z,9.70
2023-05-03T19:24:44.036Z,9.70
2023-05-03T19:27:11.916Z,9.70
2023-05-03T19:29:39.386Z,9.60
2023-05-03T19:32:07.042Z,9.60
2023-05-03T19:34:37.832Z,9.70
2023-05-03T19:37:05.514Z,9.70
2023-05-03T19:39:35.704Z,9.60
2023-05-03T19:42:04.002Z,9.70
2023-05-03T19:44:31.856Z,9.70
2023-05-03T19:46:59.306Z,9.70
2023-05-03T19:49:26.751Z,9.70
2023-05-03T19:51:55.621Z,9.80
2023-05-03T19:54:23.511Z,9.70
2023-05-03T19:56:51.353Z,9.60
2023-05-03T19:59:18.787Z,9.60
2023-05-03T20:01:46.332Z,9.60
2023-05-03T20:04:13.961Z,9.60
2023-05-03T20:06:41.607Z,9.50
2023-05-03T20:09:09.271Z,9.40
2023-05-03T20:11:36.746Z,9.40
2023-05-03T20:14:04.246Z,9.40
2023-05-03T20:16:37.427Z,9.60
2023-05-03T20:19:05.583Z,9.50
2023-05-03T20:21:33.098Z,9.60
2023-05-03T20:24:00.854Z,9.50
2023-05-03T20:26:28.382Z,9.40
2023-05-03T20:28:56.032Z,9.40
2023-05-03T20:31:23.601Z,9.60
2023-05-03T20:33:51.252Z,9.50
2023-05-03T20:36:18.690Z,9.70
2023-05-03T20:38:46.544Z,9.40
2023-05-03T20:41:14.020Z,9.60
2023-05-03T20:43:41.497Z,9.50
2023-05-03T20:46:09.048Z,9.40
2023-05-03T20:48:36.819Z,9.50
2023-05-03T20:51:07.576Z,9.40
2023-05-03T20:53:35.392Z,9.50
2023-05-03T20:56:06.346Z,9.30
2023-05-03T20:58:34.138Z,9.40
2023-05-03T21:01:04.286Z,9.40
2023-05-03T21:03:32.118Z,9.30
2023-05-03T21:05:59.790Z,9.50
2023-05-03T21:08:27.537Z,9.50
2023-05-03T21:10:55.175Z,9.60
2023-05-03T21:13:22.859Z,9.60
2023-05-03T21:15:53.041Z,9.60
2023-05-03T21:18:20.453Z,9.50
2023-05-03T21:20:47.930Z,9.60
2023-05-03T21:23:15.403Z,9.40
2023-05-03T21:25:43.385Z,9.60
2023-05-03T21:28:10.843Z,9.50
2023-05-03T21:30:38.484Z,9.40
2023-05-03T21:33:06.032Z,9.40
2023-05-03T21:35:34.472Z,9.40
2023-05-03T21:38:01.980Z,9.50
2023-05-03T21:40:29.402Z,9.50
2023-05-03T21:42:57.462Z,9.50
2023-05-03T21:45:25.005Z,9.40
2023-05-03T21:47:52.555Z,9.50
2023-05-03T21:50:20.180Z,9.50
2023-05-03T21:52:47.663Z,9.50
2023-05-03T21:55:15.119Z,9.40
2023-05-03T21:57:42.622Z,9.30
2023-05-03T22:00:16.834Z,9.40
2023-05-03T22:02:44.450Z,9.30
2023-05-03T22:05:13.193Z,9.40
2023-05-03T22:07:40.837Z,9.50
2023-05-03T22:10:08.874Z,9.40
2023-05-03T22:12:36.506Z,9.40
2023-05-03T22:15:04.200Z,9.30
2023-05-03T22:17:31.868Z,9.30
2023-05-03T22:19:59.356Z,9.20
2023-05-03T22:22:26.943Z,9.20
2023-05-03T22:24:55.674Z,9.20
2023-05-03T22:27:23.716Z,9.30
2023-05-03T22:29:51.345Z,9.20
2023-05-03T22:32:18.812Z,9.20
2023-05-03T22:34:46.330Z,9.30
2023-05-03T22:37:13.850Z,9.40
2023-05-03T22:39:41.586Z,9.30
2023-05-03T22:42:09.078Z,9.50
2023-05-03T22:44:37.324Z,9.40
2023-05-03T22:47:04.842Z,9.40
2023-05-03T22:49:32.444Z,9.30
2023-05-03T22:51:59.894Z,9.30
2023-05-03T22:54:27.410Z,9.20
2023-05-03T22:56:55.269Z,9.20
2023-05-03T22:59:22.933Z,9.30
2023-05-03T23:01:50.516Z,9.20
2023-05-03T23:04:18.135Z,9.20
2023-05-03T23:06:45.568Z,9.20
2023-05-03T23:09:13.040Z,9.20
2023-05-03T23:11:40.540Z,9.10
2023-05-03T23:14:08.013Z,9.20
2023-05-03T23:16:35.506Z,9.20
2023-05-03T23:19:03.822Z,9.10
2023-05-03T23:21:32.483Z,9.00
2023-05-03T23:24:00.206Z,9.10
2023-05-03T23:26:28.357Z,9.00
2023-05-03T23:28:56.368Z,9.10
2023-05-03T23:31:24.417Z,9.00
2023-05-03T23:33:52.478Z,8.90
2023-05-03T23:36:19.932Z,9.00
2023-05-03T23:38:49.408Z,8.90
2023-05-03T23:41:17.266Z,8.90
2023-05-03T23:43:44.712Z,9.00
2023-05-03T23:46:12.212Z,8.90
2023-05-03T23:48:39.651Z,9.00
2023-05-03T23:51:07.452Z,9.10
2023-05-03T23:53:34.861Z,9.10
2023-05-03T23:56:02.280Z,9.00
2023-05-03T23:58:29.743Z,8.90
